METAR Data
IDs: Format: Raw Decoded Include TAF

Data at: 1910 UTC 18 Jul 2019

KSXU 181855Z AUTO 01003KT 10SM CLR 37/03 A2999 RMK AO2 T03680027
KSXU 181835Z AUTO 32003KT 10SM CLR 37/04 A2999 RMK AO2 T03700044
KSXU 181815Z AUTO 27005G14KT 10SM CLR 37/04 A3000 RMK AO2 T03670041
KSXU 181755Z AUTO 31007KT 270V330 10SM CLR 37/05 A3000 RMK AO2 T03670047 10367 20182
KSXU 181735Z AUTO 36008KT 10SM CLR 36/04 A3000 RMK AO2 T03560043
KSXU 181715Z AUTO 31006KT 10SM CLR 35/04 A3002 RMK AO2 T03500042
KSXU 181655Z AUTO 34007KT 10SM CLR 34/05 A3002 RMK AO2 T03440046
KSXU 181635Z AUTO 34007KT 10SM CLR 34/05 A3002 RMK AO2 T03390045
KSXU 181615Z AUTO 32008KT 10SM CLR 33/05 A3002 RMK AO2 T03300045
KSXU 181555Z AUTO 32009KT 10SM CLR 32/05 A3002 RMK AO2 T03220046
KSXU 181535Z AUTO 32006KT 10SM CLR 32/05 A3002 RMK AO2 T03150054
KSXU 181515Z AUTO 30008KT 10SM CLR 31/06 A3002 RMK AO2 T03070064
KSXU 181455Z AUTO 29007KT 10SM CLR 30/08 A3003 RMK AO2 T02950078
KSXU 181435Z AUTO 29008KT 10SM CLR 28/08 A3003 RMK AO2 T02800075
KSXU 181415Z AUTO 26005KT 10SM CLR 27/08 A3003 RMK AO2 T02690081
KSXU 181355Z AUTO 27007KT 10SM CLR 26/08 A3003 RMK AO2 T02550078
KSXU 181335Z AUTO 26008KT 10SM CLR 24/08 A3003 RMK AO2 T02440080
KSXU 181315Z AUTO 26004KT 10SM CLR 23/08 A3003 RMK AO2 T02340078
KSXU 181255Z AUTO 00000KT 10SM CLR 23/09 A3003 RMK AO2 T02270089
KSXU 181235Z AUTO 03005KT 10SM CLR 21/10 A3002 RMK AO2 T02090098
KSXU 181215Z AUTO 00000KT 10SM CLR 18/11 A3002 RMK AO2 T01830107
KSXU 181155Z AUTO 00000KT 10SM CLR 19/12 A3001 RMK AO2 T01890118 10272 20182
KSXU 181135Z AUTO 00000KT 10SM CLR 19/12 A3000 RMK AO2 T01910124
KSXU 181115Z AUTO 11004KT 10SM CLR 18/13 A3000 RMK AO2 T01830134
KSXU 181055Z AUTO 09005KT 10SM CLR 19/13 A3000 RMK AO2 T01870131
KSXU 181035Z AUTO 09007KT 10SM CLR 19/12 A3000 RMK AO2 T01850121
KSXU 181015Z AUTO 00000KT 10SM CLR 19/13 A3000 RMK AO2 T01910132
KSXU 180955Z AUTO 16003KT 10SM CLR 19/13 A3000 RMK AO2 T01890133
KSXU 180935Z AUTO 12003KT 10SM CLR 20/13 A3000 RMK AO2 T01990134
KSXU 180915Z AUTO 12005KT 10SM CLR 20/14 A3000 RMK AO2 T02020135
KSXU 180855Z AUTO 11006KT 10SM CLR 21/14 A3000 RMK AO2 T02050135
KSXU 180835Z AUTO 11009KT 10SM CLR 21/14 A3000 RMK AO2 T02100135
KSXU 180815Z AUTO 12009KT 10SM CLR 22/13 A3000 RMK AO2 T02150133
KSXU 180755Z AUTO 11010KT 10SM CLR 22/13 A3001 RMK AO2 T02210131
KSXU 180735Z AUTO 11008KT 10SM CLR 22/12 A3000 RMK AO2 T02200123
KSXU 180715Z AUTO 12008KT 10SM CLR 23/12 A3001 RMK AO2 T02270115
KSXU 180655Z AUTO 13006KT 10SM CLR 25/11 A3002 RMK AO2 T02470111
KSXU 180635Z AUTO 18006KT 10SM CLR 26/11 A3002 RMK AO2 T02570106
KSXU 180615Z AUTO 17008KT 10SM CLR 27/10 A3002 RMK AO2 T02650103
KSXU 180555Z AUTO 16011KT 10SM CLR 27/10 A3002 RMK AO2 T02690099 10378 20269 403840195
KSXU 180535Z AUTO 16005KT 10SM CLR 28/09 A3002 RMK AO2 T02800093
KSXU 180515Z AUTO 16006KT 10SM CLR 28/09 A3002 RMK AO2 T02810093
KSXU 180455Z AUTO 16010G14KT 10SM CLR 29/09 A3000 RMK AO2 T02900093
KSXU 180435Z AUTO 17008KT 10SM CLR 29/10 A3000 RMK AO2 T02880095
KSXU 180415Z AUTO 15008KT 10SM CLR 29/10 A3000 RMK AO2 T02930095
KSXU 180355Z AUTO 16015G19KT 10SM CLR 31/09 A2999 RMK AO2 T03050093
KSXU 180335Z AUTO 17015G20KT 10SM CLR 31/09 A2998 RMK AO2 T03070092
KSXU 180315Z AUTO 17012G20KT 10SM CLR 31/09 A2998 RMK AO2 T03120090
KSXU 180255Z AUTO 15014G22KT 10SM CLR 32/10 A2996 RMK AO2 T03160096
KSXU 180235Z AUTO 12016G22KT 10SM CLR 31/11 A2996 RMK AO2 T03140114
KSXU 180215Z AUTO 12019G23KT 10SM CLR 33/09 A2995 RMK AO2 T03290087
KSXU 180155Z AUTO 12007KT 10SM CLR 34/07 A2994 RMK AO2 T03410067
KSXU 180135Z AUTO 17004KT 10SM CLR 36/06 A2994 RMK AO2 T03620062
KSXU 180115Z AUTO 00000KT 10SM CLR 37/06 A2993 RMK AO2 T03660056
KSXU 180055Z AUTO 19003KT 10SM CLR 37/05 A2993 RMK AO2 T03720050
KSXU 180035Z AUTO 20003KT 10SM CLR 37/05 A2994 RMK AO2 T03690049
KSXU 180015Z AUTO 34004KT 10SM CLR 37/07 A2994 RMK AO2 T03730068
KSXU 172355Z AUTO 33008KT 10SM CLR 38/07 A2994 RMK AO2 T03790073 10384 20340
KSXU 172335Z AUTO 30012G20KT 260V330 10SM CLR 38/06 A2994 RMK AO2 T03820062
KSXU 172315Z AUTO 26009G17KT 10SM CLR 38/06 A2995 RMK AO2 T03770060
KSXU 172255Z AUTO 26009KT 10SM SCT120 38/06 A2995 RMK AO2 T03780055
KSXU 172235Z AUTO 26009G17KT 10SM CLR 38/06 A2996 RMK AO2 LTG DSNT SE T03810059
KSXU 172215Z AUTO 22007G17KT 10SM CLR 38/06 A2997 RMK AO2 LTG DSNT SE T03790060
KSXU 172155Z AUTO 22006G18KT 10SM CLR 37/07 A2997 RMK AO2 T03700068
KSXU 172135Z AUTO 22011G14KT 10SM CLR 37/08 A2999 RMK AO2 T03730080
KSXU 172115Z AUTO 22010G15KT 10SM CLR 37/08 A3000 RMK AO2 T03660083
KSXU 172055Z AUTO 22012G17KT 10SM CLR 37/09 A3000 RMK AO2 T03670091
KSXU 172035Z AUTO 22008KT 10SM CLR 36/08 A3002 RMK AO2 T03620083
KSXU 172015Z AUTO 22013G20KT 10SM CLR 36/08 A3002 RMK AO2 T03610083
KSXU 171955Z AUTO 24011G19KT 10SM CLR 37/08 A3003 RMK AO2 T03650076
KSXU 171935Z AUTO 19013G17KT 10SM CLR 36/09 A3003 RMK AO2 T03580091
KSXU 171915Z AUTO 21015G21KT 10SM CLR 36/10 A3004 RMK AO2 T03570102
KSXU 171855Z AUTO 20011G17KT 10SM CLR 35/11 A3005 RMK AO2 T03500110
KSXU 171835Z AUTO 22006G18KT 200V270 10SM CLR 35/11 A3006 RMK AO2 T03490113
KSXU 171815Z AUTO 21012G19KT 10SM CLR 35/12 A3007 RMK AO2 T03450118
KSXU 171755Z AUTO 21010G16KT 10SM CLR 34/12 A3008 RMK AO2 T03370118 10337 20205
KSXU 171735Z AUTO 25007KT 10SM CLR 33/12 A3009 RMK AO2 T03300117
KSXU 171715Z AUTO 22011G19KT 10SM CLR 33/12 A3009 RMK AO2 T03260116
KSXU 171655Z AUTO 22011G15KT 10SM CLR 32/11 A3010 RMK AO2 T03200112
KSXU 171635Z AUTO 21010G15KT 10SM CLR 31/12 A3010 RMK AO2 T03120121
KSXU 171615Z AUTO 19013KT 10SM CLR 31/13 A3011 RMK AO2 T03060127
KSXU 171555Z AUTO 21012G16KT 10SM CLR 29/15 A3011 RMK AO2 T02920149
KSXU 171535Z AUTO 20009KT 10SM CLR 27/15 A3012 RMK AO2 T02710148
KSXU 171515Z AUTO 18008KT 10SM CLR 26/15 A3012 RMK AO2 T02640146
KSXU 171455Z AUTO 18008KT 10SM CLR 26/15 A3013 RMK AO2 T02600145
KSXU 171435Z AUTO 20011KT 10SM CLR 26/15 A3012 RMK AO2 T02560145
KSXU 171415Z AUTO 20009KT 10SM CLR 24/15 A3012 RMK AO2 T02350149
KSXU 171355Z AUTO 21006KT 10SM CLR 23/15 A3012 RMK AO2 T02270152
KSXU 171335Z AUTO 22008KT 10SM CLR 23/15 A3011 RMK AO2 T02270151
KSXU 171315Z AUTO 20007KT 10SM CLR 22/15 A3010 RMK AO2 T02240150
KSXU 171255Z AUTO 21005KT 10SM CLR 23/15 A3010 RMK AO2 T02250151
KSXU 171235Z AUTO 22005KT 10SM CLR 22/15 A3009 RMK AO2 T02210147
KSXU 171215Z AUTO 15007KT 10SM CLR 21/15 A3009 RMK AO2 T02060147
KSXU 171155Z AUTO 19006KT 10SM CLR 21/15 A3008 RMK AO2 T02100150 10235 20195
KSXU 171135Z AUTO 15008KT 10SM CLR 20/15 A3008 RMK AO2 T02010151
KSXU 171115Z AUTO 17007KT 10SM CLR 20/16 A3007 RMK AO2 LTG DSNT S T02010155
KSXU 171055Z AUTO 21006KT 10SM CLR 20/16 A3007 RMK AO2 T02010155
KSXU 171035Z AUTO 22006KT 10SM CLR 20/16 A3007 RMK AO2 T02030155
KSXU 171015Z AUTO 21006KT 10SM CLR 20/16 A3007 RMK AO2 T02000155
KSXU 170955Z AUTO 18003KT 10SM CLR 20/15 A3008 RMK AO2 T02000154
KSXU 170935Z AUTO 00000KT 10SM CLR 21/15 A3009 RMK AO2 T02050152
KSXU 170915Z AUTO 00000KT 10SM CLR 21/15 A3009 RMK AO2 T02060151
KSXU 170855Z AUTO 17005KT 10SM CLR 21/15 A3009 RMK AO2 T02090145
KSXU 170835Z AUTO 13003KT 10SM SCT120 21/15 A3010 RMK AO2 T02110145
KSXU 170815Z AUTO 20004KT 10SM CLR 22/14 A3010 RMK AO2 T02200138
KSXU 170755Z AUTO 18005KT 10SM CLR 23/14 A3010 RMK AO2 T02250140
KSXU 170735Z AUTO 15005KT 10SM CLR 23/14 A3010 RMK AO2 T02300141
KSXU 170715Z AUTO 20006KT 10SM CLR 23/15 A3011 RMK AO2 T02320145